Port Byron, Illinois
Current Conditions -  °F | °C
As of 2:52 AM on Monday 22 Dec 2014 (Local Time) from KDVN Reporting Station
Overcast Overcast  
Wind Chill: 26°   Ceiling: 3800
Heat Index: 36°   Visibility: 8mi
Dew Point: 30°   Wind: 16mph
Humidity: 79%   Direction: 150°SSE
Pressure: 29.86"   Gusts: NA
Location:  41.61°N, 90.34°W
Report Text: KDVN 220852Z AUTO 15014KT 8SM BKN038 OVC060 02/M01 A2986 RMK AO2 SLP117 T00221011 56016
Loading
Personal Weather Stations






























Interactive Weather Map New forecast layout! Learn more

10-Day Weather Forecast

Advertisements
Track Severe Weather on mobile